Time;durP1;ratioP1;P1;durP2;ratioP2;P2;SDS_P1;SDS_P2;PMS_P1;PMS_P2;Temp;Humidity;BMP_temperature;BMP_pressure;BME280_temperature;BME280_humidity;BME280_pressure;Samples;Min_cycle;Max_cycle;Signal;HPM_P1;HPM_P2
2020/12/11 00:01:35;;;;;;;26.67;15.15;;;153.70;2201.60;;;;;;5100033;28;20023;-73
2020/12/11 00:04:01;;;;;;;26.20;15.13;;;153.80;2201.60;;;;;;5100729;28;20032;-73
2020/12/11 00:06:30;;;;;;;21.27;11.52;;;153.90;2201.60;;;;;;5101572;28;20035;-73
2020/12/11 00:08:56;;;;;;;;;;;154.00;2176.00;;;;;;5082906;28;20483;-73
2020/12/11 00:11:29;;;;;;;22.52;12.68;;;154.10;2150.40;;;;;;5100587;28;19950;-73
2020/12/11 00:13:55;;;;;;;20.40;12.32;;;154.00;2176.00;;;;;;5100912;28;20020;-73
2020/12/11 00:16:24;;;;;;;24.67;14.07;;;154.00;2176.00;;;;;;5100120;28;20036;-73
2020/12/11 00:18:50;;;;;;;18.77;11.18;;;154.20;2176.00;;;;;;5082234;28;20059;-73
2020/12/11 00:21:16;;;;;;;19.83;12.50;;;153.90;2201.60;;;;;;5100653;28;20036;-73
2020/12/11 00:23:42;;;;;;;20.20;13.48;;;154.10;2176.00;;;;;;5100124;28;20024;-73
2020/12/11 00:26:08;;;;;;;18.05;12.02;;;153.80;2176.00;;;;;;5100548;28;20027;-73
2020/12/11 00:28:34;;;;;;;16.02;11.20;;;153.60;2227.20;;;;;;5100220;28;20028;-73
2020/12/11 00:31:00;;;;;;;17.98;11.75;;;128.90;2227.20;;;;;;5099955;28;20022;-73
2020/12/11 00:33:27;;;;;;;13.43;8.05;;;153.80;2176.00;;;;;;5100186;28;20027;-73
2020/12/11 00:35:53;;;;;;;19.67;11.43;;;153.80;2201.60;;;;;;5099794;28;20346;-73
2020/12/11 00:38:20;;;;;;;22.63;12.88;;;153.90;2176.00;;;;;;5100045;28;20036;-73
2020/12/11 00:40:45;;;;;;;26.48;14.70;;;154.00;2176.00;;;;;;5099752;28;20043;-73
2020/12/11 00:43:11;;;;;;;22.17;12.40;;;154.10;2150.40;;;;;;5099578;28;20403;-73
2020/12/11 00:45:38;;;;;;;24.17;13.02;;;154.20;2150.40;;;;;;5100224;28;20028;-73
2020/12/11 00:48:04;;;;;;;26.13;14.30;;;154.00;2176.00;;;;;;5099862;28;20055;-73
2020/12/11 00:50:29;;;;;;;28.65;15.63;;;154.00;2176.00;;;;;;5099546;28;20062;-73
2020/12/11 00:52:55;;;;;;;31.80;17.23;;;154.00;2176.00;;;;;;5099788;28;20031;-73
2020/12/11 00:55:21;;;;;;;35.25;21.35;;;154.00;2176.00;;;;;;5099958;28;20454;-73
2020/12/11 00:57:48;;;;;;;27.40;15.13;;;154.00;2176.00;;;;;;5099715;28;20028;-73
2020/12/11 01:00:15;;;;;;;24.70;14.95;;;128.90;2227.20;;;;;;5099672;28;20055;-73
2020/12/11 01:02:41;;;;;;;34.45;17.60;;;128.80;2252.80;;;;;;5099882;28;20105;-73
2020/12/11 01:05:07;;;;;;;36.10;17.27;;;128.90;2227.20;;;;;;5099274;28;20411;-73
2020/12/11 01:07:33;;;;;;;31.85;18.88;;;128.50;2252.80;;;;;;5099246;28;20024;-73
2020/12/11 01:09:59;;;;;;;39.47;17.73;;;128.50;2252.80;;;;;;5099169;28;20028;-73
2020/12/11 01:12:25;;;;;;;37.47;18.20;;;128.40;2252.80;;;;;;5099159;28;20024;-73
2020/12/11 01:14:51;;;;;;;29.08;17.45;;;128.60;2252.80;;;;;;5099530;28;20031;-73
2020/12/11 01:17:17;;;;;;;30.30;17.80;;;128.90;2227.20;;;;;;5099661;28;20108;-73
2020/12/11 01:19:43;;;;;;;34.05;18.20;;;128.70;2227.20;;;;;;5099291;28;20362;-73
2020/12/11 01:22:10;;;;;;;32.63;19.23;;;128.90;2201.60;;;;;;5098928;28;20115;-73
2020/12/11 01:24:36;;;;;;;38.10;22.27;;;128.90;2227.20;;;;;;5099519;28;20081;-73
2020/12/11 01:27:02;;;;;;;58.15;32.97;;;153.70;2201.60;;;;;;5099086;28;20031;-73
2020/12/11 01:29:27;;;;;;;50.35;28.25;;;153.70;2201.60;;;;;;5099383;28;20100;-73
2020/12/11 01:32:00;;;;;;;46.83;23.90;;;153.70;2201.60;;;;;;5099040;28;20106;-73
2020/12/11 01:34:26;;;;;;;49.67;26.05;;;153.80;2176.00;;;;;;5099230;28;20107;-73
2020/12/11 01:36:52;;;;;;;28.75;16.65;;;153.80;2176.00;;;;;;5099217;28;20024;-73
2020/12/11 01:39:18;;;;;;;32.53;16.30;;;153.80;2176.00;;;;;;5098943;28;20422;-73
2020/12/11 01:41:44;;;;;;;38.03;19.33;;;153.60;2201.60;;;;;;5098740;28;20059;-73
2020/12/11 01:44:10;;;;;;;38.25;18.58;;;153.60;2201.60;;;;;;5098796;28;20099;-73
2020/12/11 01:46:40;;;;;;;45.83;18.90;;;153.70;2201.60;;;;;;5098488;28;20024;-73
2020/12/11 01:49:08;;;;;;;31.92;18.17;;;153.70;2201.60;;;;;;5098439;28;20085;-73
2020/12/11 01:51:35;;;;;;;26.50;14.82;;;153.60;2227.20;;;;;;5098862;28;20111;-73
2020/12/11 01:54:01;;;;;;;22.65;12.60;;;153.60;2252.80;;;;;;5097765;28;20028;-73
2020/12/11 01:56:31;;;;;;;21.08;12.32;;;128.90;2252.80;;;;;;5098186;28;20312;-73
2020/12/11 01:59:07;;;;;;;22.95;13.20;;;153.70;2227.20;;;;;;5098316;28;20110;-73
2020/12/11 02:01:35;;;;;;;33.47;17.92;;;153.90;2201.60;;;;;;5098457;28;20039;-73
2020/12/11 02:04:04;;;;;;;29.75;15.45;;;153.80;2227.20;;;;;;5098446;28;20051;-73
2020/12/11 02:06:30;;;;;;;28.88;12.32;;;153.90;2201.60;;;;;;5098103;28;20387;-72
2020/12/11 02:08:56;;;;;;;23.55;13.05;;;153.90;2201.60;;;;;;5098133;28;20425;-73
2020/12/11 02:11:24;;;;;;;25.55;12.93;;;153.80;2227.20;;;;;;5098273;28;20023;-73
2020/12/11 02:13:50;;;;;;;22.73;12.07;;;153.90;2201.60;;;;;;5097809;28;20035;-73
2020/12/11 02:16:21;;;;;;;25.65;13.13;;;154.00;2201.60;;;;;;5098107;28;20024;-73
2020/12/11 02:18:47;;;;;;;19.02;11.48;;;153.90;2176.00;;;;;;5098124;28;20115;-73
2020/12/11 02:21:13;;;;;;;31.33;12.38;;;153.90;2201.60;;;;;;5097527;28;20072;-73
2020/12/11 02:23:39;;;;;;;37.05;19.42;;;154.00;2176.00;;;;;;5098347;28;20102;-73
2020/12/11 02:26:05;;;;;;;28.67;15.95;;;154.10;2201.60;;;;;;5097686;28;20031;-73
2020/12/11 02:28:32;;;;;;;27.50;16.50;;;154.00;2201.60;;;;;;5097677;28;20027;-72
2020/12/11 02:30:59;;;;;;;26.08;15.85;;;153.80;2227.20;;;;;;5097932;28;20084;-73
2020/12/11 02:33:24;;;;;;;22.60;13.80;;;154.00;2201.60;;;;;;5097906;28;20028;-72
2020/12/11 02:35:50;;;;;;;29.67;14.32;;;154.20;2176.00;;;;;;5097738;28;20031;-73
2020/12/11 02:38:16;;;;;;;28.08;15.45;;;154.20;2176.00;;;;;;5098098;28;20054;-72
2020/12/11 02:40:53;;;;;;;24.13;14.35;;;153.90;2201.60;;;;;;5097786;28;20023;-73
2020/12/11 02:43:19;;;;;;;30.30;14.38;;;153.90;2201.60;;;;;;5097693;28;20056;-72
2020/12/11 02:45:51;;;;;;;26.10;14.80;;;154.10;2176.00;;;;;;5097964;28;20032;-73
2020/12/11 02:48:19;;;;;;;26.58;14.63;;;153.80;2201.60;;;;;;5097733;28;20024;-73
2020/12/11 02:50:45;;;;;;;29.13;16.17;;;153.60;2227.20;;;;;;5097681;28;20027;-72
2020/12/11 02:53:11;;;;;;;27.80;15.52;;;128.80;2227.20;;;;;;5097589;28;20346;-72
2020/12/11 02:55:37;;;;;;;25.75;14.68;;;128.90;2227.20;;;;;;5097472;28;20032;-72
2020/12/11 02:58:04;;;;;;;28.98;16.10;;;128.90;2227.20;;;;;;5096945;28;20059;-73
2020/12/11 03:00:30;;;;;;;24.80;15.05;;;153.60;2201.60;;;;;;5097240;28;20020;-73
2020/12/11 03:02:56;;;;;;;42.33;23.60;;;128.80;2227.20;;;;;;5097135;28;20429;-73
2020/12/11 03:05:22;;;;;;;29.73;17.15;;;153.60;2201.60;;;;;;5096482;28;20102;-73
2020/12/11 03:07:48;;;;;;;33.47;19.05;;;128.90;2227.20;;;;;;5097416;28;20319;-73
2020/12/11 03:10:14;;;;;;;28.90;18.02;;;153.60;2201.60;;;;;;5096781;28;20144;-72
2020/12/11 03:12:40;;;;;;;31.33;16.92;;;153.60;2227.20;;;;;;5097276;28;20047;-73
2020/12/11 03:15:05;;;;;;;29.45;16.73;;;153.60;2252.80;;;;;;5097479;28;20035;-73
2020/12/11 03:17:31;;;;;;;36.28;18.70;;;153.60;2227.20;;;;;;5096965;28;20065;-72
2020/12/11 03:19:57;;;;;;;35.67;17.70;;;128.80;2252.80;;;;;;5096967;28;20028;-73
2020/12/11 03:22:23;;;;;;;24.40;14.57;;;128.80;2252.80;;;;;;5096902;28;20470;-73
2020/12/11 03:24:48;;;;;;;28.30;15.27;;;153.60;2227.20;;;;;;5097289;28;20373;-73
2020/12/11 03:27:14;;;;;;;25.55;15.75;;;153.60;2252.80;;;;;;5097160;28;20036;-73
2020/12/11 03:29:40;;;;;;;23.88;15.93;;;128.80;2252.80;;;;;;5097182;28;20038;-73
2020/12/11 03:32:06;;;;;;;24.70;13.77;;;128.90;2252.80;;;;;;5096843;28;20056;-72
2020/12/11 03:34:32;;;;;;;30.92;13.90;;;153.60;2252.80;;;;;;5097051;28;20111;-73
2020/12/11 03:36:57;;;;;;;27.30;15.75;;;153.70;2227.20;;;;;;5097084;28;20478;-72
2020/12/11 03:39:23;;;;;;;29.02;16.27;;;128.90;2252.80;;;;;;5096539;28;20070;-73
2020/12/11 03:41:53;;;;;;;26.80;17.83;;;128.70;2252.80;;;;;;5097244;28;20106;-72
2020/12/11 03:44:19;;;;;;;28.55;17.25;;;128.60;2252.80;;;;;;5097047;28;20031;-73
2020/12/11 03:46:45;;;;;;;28.60;18.35;;;128.60;2252.80;;;;;;5096999;28;20060;-72
2020/12/11 03:49:12;;;;;;;33.92;19.52;;;128.60;2252.80;;;;;;5096967;28;20024;-73
2020/12/11 03:51:38;;;;;;;34.65;19.77;;;128.30;2252.80;;;;;;5096953;28;20028;-73
2020/12/11 03:54:04;;;;;;;31.13;19.08;;;128.10;2252.80;;;;;;5096994;28;20118;-73
2020/12/11 03:56:30;;;;;;;34.40;20.00;;;103.30;2227.20;;;;;;5097117;28;20039;-72
2020/12/11 03:58:56;;;;;;;30.17;19.20;;;103.10;2227.20;;;;;;5096631;28;20024;-72
2020/12/11 04:01:22;;;;;;;34.15;21.25;;;103.00;2227.20;;;;;;5097125;28;20035;-72
2020/12/11 04:03:48;;;;;;;32.97;20.20;;;103.00;2227.20;;;;;;5097130;28;20024;-72
2020/12/11 04:06:17;;;;;;;37.38;20.35;;;103.10;2227.20;;;;;;5096785;28;20039;-72
2020/12/11 04:08:44;;;;;;;35.85;20.83;;;103.00;2227.20;;;;;;5096839;28;20020;-72
2020/12/11 04:11:12;;;;;;;37.17;22.05;;;103.10;2227.20;;;;;;5096173;28;20320;-73
2020/12/11 04:13:38;;;;;;;34.35;19.88;;;103.10;2227.20;;;;;;5096493;28;20031;-72
2020/12/11 04:16:04;;;;;;;38.03;20.90;;;103.20;2227.20;;;;;;5096835;28;20028;-72
2020/12/11 04:18:30;;;;;;;38.88;23.00;;;103.20;2227.20;;;;;;5100499;28;20028;-73
2020/12/11 04:20:57;;;;;;;37.63;22.48;;;103.20;2227.20;;;;;;5100198;28;20028;-72
2020/12/11 04:23:27;;;;;;;43.55;24.70;;;128.00;2252.80;;;;;;5100052;28;20024;-72
2020/12/11 04:25:53;;;;;;;42.35;24.60;;;128.10;2252.80;;;;;;5100011;28;20408;-72
2020/12/11 04:28:20;;;;;;;43.40;24.25;;;128.30;2252.80;;;;;;5100059;28;20052;-73
2020/12/11 04:30:46;;;;;;;44.63;25.45;;;128.40;2252.80;;;;;;5100499;28;20454;-72
2020/12/11 04:33:11;;;;;;;39.63;21.40;;;128.40;2252.80;;;;;;5100158;28;20023;-72
2020/12/11 04:35:37;;;;;;;39.15;21.27;;;128.50;2252.80;;;;;;5099512;28;20032;-72
2020/12/11 04:38:04;;;;;;;41.55;23.60;;;128.40;2252.80;;;;;;5100397;28;20031;-73
2020/12/11 04:40:30;;;;;;;58.38;25.83;;;128.20;2252.80;;;;;;5100285;28;20028;-72
2020/12/11 04:42:56;;;;;;;50.60;25.63;;;103.30;2227.20;;;;;;5099895;28;20499;-72
2020/12/11 04:45:23;;;;;;;41.53;24.65;;;128.00;2252.80;;;;;;5099983;28;20032;-72
2020/12/11 04:47:50;;;;;;;48.05;26.40;;;128.10;2252.80;;;;;;5099703;28;20031;-72
2020/12/11 04:50:17;;;;;;;46.45;26.45;;;128.00;2252.80;;;;;;5099591;28;20020;-72
2020/12/11 04:52:46;;;;;;;43.08;22.70;;;128.00;2252.80;;;;;;5099488;28;20410;-72
2020/12/11 04:55:19;;;;;;;;;;;103.00;2227.20;;;;;;5099590;28;20028;-72
2020/12/11 04:57:51;;;;;;;51.15;24.90;;;103.00;2227.20;;;;;;5100019;28;20068;-72
2020/12/11 05:00:19;;;;;;;55.97;27.27;;;102.90;2227.20;;;;;;5099990;28;20024;-72
2020/12/11 05:02:46;;;;;;;53.45;29.25;;;103.00;2227.20;;;;;;5099622;28;20047;-72
2020/12/11 05:05:14;;;;;;;56.33;28.55;;;102.90;2227.20;;;;;;5099808;28;20111;-73
2020/12/11 05:07:40;;;;;;;56.75;26.40;;;128.00;2252.80;;;;;;5098942;28;20449;-72
2020/12/11 05:10:07;;;;;;;52.40;26.63;;;103.30;2227.20;;;;;;5098990;28;20028;-73
2020/12/11 05:12:34;;;;;;;52.08;26.83;;;128.00;2252.80;;;;;;5099164;28;20419;-72
2020/12/11 05:15:04;;;;;;;54.13;27.13;;;128.00;2252.80;;;;;;5098998;28;20031;-72
2020/12/11 05:17:32;;;;;;;59.58;26.83;;;103.20;2227.20;;;;;;5098882;28;20456;-73
2020/12/11 05:19:59;;;;;;;52.63;29.63;;;128.00;2252.80;;;;;;5099027;28;20016;-72
2020/12/11 05:22:30;;;;;;;48.20;27.08;;;128.30;2252.80;;;;;;5098950;28;20099;-72
2020/12/11 05:24:57;;;;;;;54.00;30.10;;;128.50;2252.80;;;;;;5099271;28;20032;-73
2020/12/11 05:27:32;;;;;;;58.47;30.50;;;128.70;2252.80;;;;;;5099162;28;20112;-72
2020/12/11 05:30:07;;;;;;;56.08;26.83;;;128.60;2252.80;;;;;;5098023;28;20028;-72
2020/12/11 05:32:56;;;;;;;66.88;33.47;;;128.80;2252.80;;;;;;5099340;28;20020;-72
2020/12/11 05:35:25;;;;;;;56.13;28.63;;;128.90;2252.80;;;;;;5098679;28;20081;-72
2020/12/11 05:38:04;;;;;;;;;;;128.70;2252.80;;;;;;5098706;28;20024;-72
2020/12/11 05:40:36;;;;;;;58.78;28.10;;;128.60;2252.80;;;;;;5098692;28;19904;-72
2020/12/11 05:43:13;;;;;;;59.42;29.08;;;128.30;2252.80;;;;;;5098598;28;20157;-73
2020/12/11 05:45:54;;;;;;;68.95;36.28;;;103.20;2227.20;;;;;;5098842;28;20039;-72
2020/12/11 05:48:25;;;;;;;60.33;31.45;;;103.20;2227.20;;;;;;5098658;28;20023;-73
2020/12/11 05:50:52;;;;;;;69.47;32.30;;;103.00;2227.20;;;;;;5098456;28;20069;-72
2020/12/11 05:53:18;;;;;;;62.28;29.20;;;103.20;2227.20;;;;;;5098667;28;20081;-73
2020/12/11 05:55:45;;;;;;;69.05;30.15;;;103.30;2227.20;;;;;;5098547;28;20024;-72
2020/12/11 05:58:11;;;;;;;73.53;35.67;;;103.20;2227.20;;;;;;5098254;28;20028;-72
2020/12/11 06:00:39;;;;;;;65.93;31.17;;;128.00;2252.80;;;;;;5098270;28;20016;-72
2020/12/11 06:03:06;;;;;;;54.15;29.48;;;128.00;2252.80;;;;;;5098631;28;20024;-73
2020/12/11 06:05:37;;;;;;;51.30;28.75;;;128.20;2252.80;;;;;;5098428;28;20122;-72
2020/12/11 06:08:09;;;;;;;60.78;29.67;;;128.10;2252.80;;;;;;5098363;28;20368;-72
2020/12/11 06:10:38;;;;;;;47.83;26.77;;;128.20;2252.80;;;;;;5097757;28;20020;-73
2020/12/11 06:13:04;;;;;;;54.78;29.10;;;128.40;2252.80;;;;;;5098306;28;20024;-72
2020/12/11 06:15:47;;;;;;;49.78;27.98;;;128.50;2252.80;;;;;;5097833;28;20034;-72
2020/12/11 06:18:27;;;;;;;58.75;28.67;;;128.40;2252.80;;;;;;5098503;28;20020;-72
2020/12/11 06:20:53;;;;;;;59.78;28.38;;;128.50;2252.80;;;;;;5098163;28;20073;-73
2020/12/11 06:23:24;;;;;;;48.35;25.38;;;128.40;2252.80;;;;;;5098369;28;20035;-72
2020/12/11 06:25:55;;;;;;;51.72;24.92;;;128.60;2252.80;;;;;;5097777;28;20077;-72
2020/12/11 06:28:36;;;;;;;50.95;26.50;;;128.30;2252.80;;;;;;5097744;28;20020;-72
2020/12/11 06:31:03;;;;;;;70.40;28.13;;;128.30;2252.80;;;;;;5097906;28;20046;-72
2020/12/11 06:33:30;;;;;;;75.53;28.95;;;128.10;2252.80;;;;;;5097944;28;20031;-72
2020/12/11 06:35:57;;;;;;;62.90;28.80;;;128.30;2252.80;;;;;;5097797;28;20172;-72
2020/12/11 06:38:39;;;;;;;71.50;32.78;;;128.20;2252.80;;;;;;5097498;28;20063;-72
2020/12/11 06:41:04;;;;;;;79.47;41.00;;;128.60;2252.80;;;;;;5097331;28;20052;-72
2020/12/11 06:43:40;;;;;;;71.55;34.25;;;128.60;2252.80;;;;;;5097476;28;20027;-72
2020/12/11 06:46:13;;;;;;;68.60;27.33;;;128.80;2252.80;;;;;;5097635;28;20032;-72
2020/12/11 06:49:17;;;;;;;55.70;24.10;;;128.90;2252.80;;;;;;5097299;28;20028;-72
2020/12/11 06:51:45;;;;;;;56.70;21.95;;;153.80;2252.80;;;;;;5097901;28;20024;-72
2020/12/11 06:54:31;;;;;;;70.55;25.15;;;153.90;2252.80;;;;;;5097596;28;20046;-72
2020/12/11 06:56:59;;;;;;;50.72;22.23;;;153.60;2252.80;;;;;;5082742;28;20040;-71
2020/12/11 06:59:29;;;;;;;52.47;23.15;;;153.80;2252.80;;;;;;5094314;28;20031;-73
2020/12/11 07:02:05;;;;;;;54.65;24.52;;;154.00;2252.80;;;;;;5096754;28;20024;-71
2020/12/11 07:04:49;;;;;;;58.30;29.15;;;153.90;2252.80;;;;;;5095696;28;20035;-72
2020/12/11 07:07:15;;;;;;;109.22;53.22;;;153.80;2252.80;;;;;;5089589;28;20077;-72
2020/12/11 07:09:48;;;;;;;75.53;28.55;;;153.90;2252.80;;;;;;5096788;28;20032;-73
2020/12/11 07:12:15;;;;;;;69.57;27.33;;;153.80;2252.80;;;;;;5097510;28;20369;-73
2020/12/11 07:14:45;;;;;;;68.28;27.60;;;153.80;2252.80;;;;;;5096932;28;20020;-73
2020/12/11 07:17:23;;;;;;;73.60;28.40;;;154.00;2252.80;;;;;;5096491;28;20442;-72
2020/12/11 07:19:55;;;;;;;71.18;29.85;;;153.90;2252.80;;;;;;5096234;28;20055;-70
2020/12/11 07:22:23;;;;;;;77.55;30.10;;;153.60;2252.80;;;;;;5094172;28;20024;-71
2020/12/11 07:24:49;;;;;;;74.53;29.15;;;153.60;2252.80;;;;;;5094907;28;20032;-71
2020/12/11 07:27:15;;;;;;;81.70;29.98;;;153.80;2252.80;;;;;;5095727;28;20039;-72
2020/12/11 07:29:53;;;;;;;77.53;29.05;;;153.70;2252.80;;;;;;5096396;28;20028;-71
2020/12/11 07:32:20;;;;;;;81.93;33.40;;;153.90;2252.80;;;;;;5097240;28;20031;-72
2020/12/11 07:34:46;;;;;;;94.20;36.70;;;153.80;2252.80;;;;;;5096440;28;20343;-71
2020/12/11 07:37:12;;;;;;;85.57;40.38;;;154.00;2252.80;;;;;;5096139;28;20446;-72
2020/12/11 07:39:38;;;;;;;65.90;29.10;;;154.10;2252.80;;;;;;5096944;28;20051;-72
2020/12/11 07:42:04;;;;;;;64.82;25.92;;;154.00;2252.80;;;;;;5096307;28;20050;-73
2020/12/11 07:44:33;;;;;;;73.93;28.35;;;153.90;2252.80;;;;;;5095615;28;20035;-71
2020/12/11 07:47:07;;;;;;;71.53;29.92;;;154.00;2252.80;;;;;;5096576;28;20024;-72
2020/12/11 07:49:41;;;;;;;73.80;29.10;;;153.90;2252.80;;;;;;5097491;28;20035;-73
2020/12/11 07:52:08;;;;;;;75.47;29.55;;;154.00;2252.80;;;;;;5098391;28;20020;-72
2020/12/11 07:54:43;;;;;;;80.20;33.95;;;154.20;2252.80;;;;;;5100526;28;20063;-70
2020/12/11 07:57:16;;;;;;;88.15;34.30;;;154.10;2252.80;;;;;;5100812;28;20039;-70
2020/12/11 07:59:54;;;;;;;86.88;37.08;;;154.30;2252.80;;;;;;5099716;28;20023;-71
2020/12/11 08:02:22;;;;;;;91.20;36.40;;;154.20;2252.80;;;;;;5100171;28;20051;-71
2020/12/11 08:04:48;;;;;;;101.38;42.60;;;153.80;2252.80;;;;;;5100066;28;20039;-73
2020/12/11 08:07:30;;;;;;;120.75;47.45;;;153.80;2252.80;;;;;;5100179;28;20069;-73
2020/12/11 08:10:16;;;;;;;122.35;45.45;;;153.70;2252.80;;;;;;5098020;28;20027;-71
2020/12/11 08:12:43;;;;;;;104.05;40.10;;;153.90;2252.80;;;;;;5098318;28;20334;-73
2020/12/11 08:15:34;;;;;;;89.82;38.40;;;154.20;2252.80;;;;;;5099790;28;20028;-72
2020/12/11 08:18:09;;;;;;;105.60;42.38;;;154.40;2252.80;;;;;;5099957;28;20368;-72
2020/12/11 08:20:52;;;;;;;121.05;47.35;;;154.40;2252.80;;;;;;5099510;28;20355;-72
2020/12/11 08:23:19;;;;;;;112.32;46.83;;;154.30;2252.80;;;;;;5097459;28;20032;-71
2020/12/11 08:25:45;;;;;;;100.75;43.17;;;154.50;2252.80;;;;;;5099720;28;20196;-72
2020/12/11 08:28:13;;;;;;;104.30;41.05;;;179.30;2252.80;;;;;;5099978;28;20129;-72
2020/12/11 08:30:39;;;;;;;80.28;32.10;;;179.50;2252.80;;;;;;5100040;28;20024;-72
2020/12/11 08:33:10;;;;;;;75.28;30.52;;;179.70;2227.20;;;;;;5100139;28;20031;-73
2020/12/11 08:35:36;;;;;;;69.13;29.95;;;179.80;2201.60;;;;;;5099916;28;20318;-72
2020/12/11 08:38:05;;;;;;;64.00;27.95;;;179.70;2227.20;;;;;;5100003;28;20028;-72
2020/12/11 08:40:32;;;;;;;64.78;27.20;;;179.80;2227.20;;;;;;5097471;28;20027;-72
2020/12/11 08:43:47;;;;;;;52.47;24.83;;;179.90;2201.60;;;;;;5099353;28;20083;-72
2020/12/11 08:51:22;;;;;;;47.43;23.83;;;179.80;2201.60;;;;;;5072573;28;20028;-73
2020/12/11 08:53:51;;;;;;;48.10;23.50;;;204.80;2176.00;;;;;;5099317;28;20377;-72
2020/12/11 08:56:16;;;;;;;49.58;26.30;;;204.90;2176.00;;;;;;5099647;28;20422;-73
2020/12/11 08:58:42;;;;;;;55.38;27.45;;;205.10;2124.80;;;;;;5099081;28;20036;-72
2020/12/11 09:01:08;;;;;;;59.22;31.40;;;205.30;2124.80;;;;;;5099044;28;20343;-72
2020/12/11 09:03:34;;;;;;;52.00;27.35;;;205.60;2099.20;;;;;;5099393;28;20020;-73
2020/12/11 09:05:59;;;;;;;38.70;21.95;;;205.50;2099.20;;;;;;5097644;28;20028;-73
2020/12/11 09:08:25;;;;;;;38.08;17.52;;;205.70;2073.60;;;;;;5099230;28;20028;-72
2020/12/11 09:10:51;;;;;;;40.92;19.77;;;205.50;2099.20;;;;;;5097530;28;20039;-72
2020/12/11 09:13:17;;;;;;;26.48;14.35;;;205.30;2124.80;;;;;;5098331;28;20024;-73
2020/12/11 09:15:43;;;;;;;28.92;15.65;;;205.20;2099.20;;;;;;5098259;28;20088;-73
2020/12/11 09:18:09;;;;;;;33.92;17.02;;;204.90;2150.40;;;;;;5098089;28;20020;-72
2020/12/11 09:20:35;;;;;;;45.40;19.40;;;204.80;2176.00;;;;;;5097471;28;20499;-73
2020/12/11 09:23:01;;;;;;;42.75;19.95;;;205.10;2150.40;;;;;;5098877;28;20114;-71
2020/12/11 09:25:26;;;;;;;40.22;18.52;;;205.00;2150.40;;;;;;5099358;28;20063;-72
2020/12/11 09:27:52;;;;;;;38.38;16.25;;;205.00;2150.40;;;;;;5097538;28;20027;-73
2020/12/11 09:30:26;;;;;;;37.08;19.05;;;204.80;2150.40;;;;;;5097555;28;20089;-72
2020/12/11 09:35:27;;;;;;;38.53;19.00;;;180.00;2201.60;;;;;;5098427;28;20125;-72
2020/12/11 09:37:54;;;;;;;33.40;17.80;;;180.00;2201.60;;;;;;5098519;28;20119;-73
2020/12/11 09:40:26;;;;;;;34.15;18.00;;;179.80;2227.20;;;;;;5098995;28;20089;-72
2020/12/11 09:45:41;;;;;;;31.75;17.42;;;180.10;2201.60;;;;;;5098021;28;20055;-72
2020/12/11 09:48:16;;;;;;;49.25;23.67;;;179.90;2227.20;;;;;;5096113;28;20020;-72
2020/12/11 09:50:52;;;;;;;31.95;18.40;;;204.80;2176.00;;;;;;5095174;28;20375;-72
2020/12/11 09:55:50;;;;;;;33.92;19.13;;;205.20;2124.80;;;;;;5098528;28;20403;-72
2020/12/11 09:58:16;;;;;;;44.72;20.20;;;205.30;2150.40;;;;;;5097173;28;20123;-73
2020/12/11 10:00:46;;;;;;;29.25;16.33;;;205.50;2099.20;;;;;;5097296;28;20024;-72
2020/12/11 10:03:18;;;;;;;;;;;205.40;2073.60;;;;;;5096665;28;20027;-73
2020/12/11 10:05:47;;;;;;;33.08;15.15;;;205.60;2073.60;;;;;;5096982;28;20328;-74
2020/12/11 10:08:13;;;;;;;;;;;205.50;2073.60;;;;;;5091206;28;20028;-72
2020/12/11 10:11:14;;;;;;;31.98;17.50;;;205.40;2073.60;;;;;;5095615;28;19912;-72
2020/12/11 10:13:54;;;;;;;33.90;17.00;;;205.40;2099.20;;;;;;5008780;28;20069;-76
2020/12/11 10:16:21;;;;;;;35.47;18.27;;;205.50;2073.60;;;;;;5015292;28;20351;-75
2020/12/11 10:18:47;;;;;;;31.00;18.13;;;205.50;2073.60;;;;;;5014941;28;20054;-75
2020/12/11 10:21:13;;;;;;;26.45;14.98;;;205.40;2099.20;;;;;;5016040;28;20335;-75
2020/12/11 10:23:39;;;;;;;38.22;16.42;;;205.30;2099.20;;;;;;5014553;28;20034;-75
2020/12/11 10:26:05;;;;;;;40.22;19.77;;;205.30;2099.20;;;;;;5015253;28;20487;-74
2020/12/11 10:28:32;;;;;;;28.58;16.08;;;205.40;2099.20;;;;;;5012450;28;20088;-73
2020/12/11 10:30:58;;;;;;;27.35;14.80;;;205.30;2099.20;;;;;;5014716;28;20044;-71
2020/12/11 10:33:24;;;;;;;48.28;26.92;;;205.30;2073.60;;;;;;5015707;28;20026;-73
2020/12/11 10:35:49;;;;;;;30.83;17.25;;;205.30;2099.20;;;;;;5015456;28;20049;-73
2020/12/11 10:38:15;;;;;;;22.15;12.57;;;205.20;2073.60;;;;;;5015190;28;20133;-72
2020/12/11 10:40:41;;;;;;;47.33;24.63;;;205.20;2073.60;;;;;;5014279;28;20100;-71
2020/12/11 10:43:07;;;;;;;20.20;13.98;;;205.70;2048.00;;;;;;5015666;28;20064;-73
2020/12/11 10:45:33;;;;;;;29.02;16.88;;;230.40;2022.40;;;;;;5013711;28;20465;-72
2020/12/11 10:47:59;;;;;;;25.65;12.30;;;230.50;1996.80;;;;;;5014926;28;20038;-72
2020/12/11 10:50:25;;;;;;;31.67;16.13;;;230.50;2022.40;;;;;;5049035;28;20032;-73
2020/12/11 10:52:51;;;;;;;20.02;11.73;;;230.60;1996.80;;;;;;5097199;28;20024;-72
2020/12/11 10:55:16;;;;;;;21.45;10.15;;;230.80;1971.20;;;;;;5096901;28;20395;-71
2020/12/11 10:57:42;;;;;;;23.63;11.02;;;231.10;1920.00;;;;;;5097700;28;20024;-70
2020/12/11 11:00:08;;;;;;;22.05;11.35;;;231.20;1945.60;;;;;;5097440;28;20117;-72
2020/12/11 11:02:34;;;;;;;21.17;10.98;;;231.00;1945.60;;;;;;5097232;28;20028;-73
2020/12/11 11:05:00;;;;;;;18.08;10.50;;;256.10;1920.00;;;;;;5097039;28;20411;-71
2020/12/11 11:07:28;;;;;;;32.38;16.52;;;256.40;1868.80;;;;;;5095607;28;20073;-71
2020/12/11 11:10:15;;;;;;;50.05;20.17;;;256.40;1868.80;;;;;;5095804;28;20397;-72
2020/12/11 11:13:05;;;;;;;22.48;11.77;;;256.60;1868.80;;;;;;5095091;28;20383;-72
2020/12/11 11:15:49;;;;;;;23.92;14.77;;;256.60;1868.80;;;;;;5096175;28;20319;-71
2020/12/11 11:26:16;;;;;;;20.02;12.57;;;282.20;1766.40;;;;;;5097026;28;20114;-71
2020/12/11 11:28:42;;;;;;;18.73;11.57;;;282.40;1766.40;;;;;;5100517;28;20020;-72
2020/12/11 11:31:11;;;;;;;26.45;17.25;;;282.10;1766.40;;;;;;5101165;28;20027;-72
2020/12/11 11:33:38;;;;;;;24.00;13.75;;;282.10;1792.00;;;;;;5101186;28;20020;-73
2020/12/11 11:36:03;;;;;;;23.20;14.35;;;282.10;1792.00;;;;;;5100847;28;20133;-71
2020/12/11 11:38:29;;;;;;;19.98;13.20;;;282.40;1740.80;;;;;;5100639;28;20036;-72
2020/12/11 11:40:55;;;;;;;20.25;13.13;;;282.20;1766.40;;;;;;5100176;28;20027;-72
2020/12/11 11:46:10;;;;;;;25.10;15.90;;;281.60;1843.20;;;;;;5068441;28;20052;-71
2020/12/11 11:48:39;;;;;;;17.83;11.80;;;256.80;1843.20;;;;;;5100149;28;20035;-73
2020/12/11 11:51:11;;;;;;;28.08;14.70;;;281.60;1843.20;;;;;;5100235;28;20028;-71
2020/12/11 11:53:37;;;;;;;22.70;12.40;;;256.30;1894.40;;;;;;5099968;28;20334;-72
2020/12/11 11:56:03;;;;;;;24.20;12.05;;;231.30;1920.00;;;;;;5100554;28;20081;-74
2020/12/11 11:58:29;;;;;;;23.30;14.43;;;230.80;1945.60;;;;;;5101040;28;20377;-72
2020/12/11 12:00:55;;;;;;;25.20;13.05;;;230.70;1971.20;;;;;;5099834;28;20027;-70
2020/12/11 12:03:24;;;;;;;28.05;13.95;;;231.30;1920.00;;;;;;5100414;28;20031;-69
2020/12/11 12:05:50;;;;;;;28.25;15.88;;;256.50;1843.20;;;;;;5082268;28;20337;-71
2020/12/11 12:08:20;;;;;;;36.60;18.50;;;282.00;1817.60;;;;;;5100412;28;20077;-71
2020/12/11 12:10:46;;;;;;;32.25;18.50;;;307.20;1766.40;;;;;;5100409;28;20030;-70
2020/12/11 12:13:12;;;;;;;27.00;16.88;;;307.60;1740.80;;;;;;5100456;28;20032;-72
2020/12/11 12:15:38;;;;;;;28.60;16.02;;;307.70;1715.20;;;;;;5100347;28;20327;-72
2020/12/11 12:18:10;;;;;;;18.27;11.40;;;307.70;1740.80;;;;;;5098344;28;20103;-71
2020/12/11 12:30:56;;;;;;;25.08;13.98;;;281.80;1817.60;;;;;;5099044;28;20077;-70
2020/12/11 12:43:56;;;;;;;29.58;15.63;;;307.90;1715.20;;;;;;5097898;28;20063;-73
2020/12/11 12:46:21;;;;;;;21.30;13.88;;;308.10;1689.60;;;;;;5099285;28;20063;-74
2020/12/11 12:48:47;;;;;;;20.35;11.48;;;308.10;1689.60;;;;;;5099324;28;20059;-71
2020/12/11 12:51:13;;;;;;;20.08;11.63;;;333.00;1664.00;;;;;;5099280;28;20490;-74
2020/12/11 12:53:39;;;;;;;20.98;11.70;;;332.80;1689.60;;;;;;5099721;28;20122;-71